Time;durP1;ratioP1;P1;durP2;ratioP2;P2;SDS_P1;SDS_P2;PMS_P1;PMS_P2;Temp;Humidity;BMP_temperature;BMP_pressure;BME280_temperature;BME280_humidity;BME280_pressure;Samples;Min_cycle;Max_cycle;Signal;HPM_P1;HPM_P2
2022/03/29 00:01:00;;;;;;;29.52;15.82;;;;;;;11.39;94.19;100340.72;5012991;28;20222;-72
2022/03/29 00:03:28;;;;;;;38.80;16.75;;;;;;;11.37;93.67;100325.16;5031101;28;20228;-72
2022/03/29 00:05:55;;;;;;;30.00;16.38;;;;;;;11.48;93.60;100333.09;5031543;28;20204;-72
2022/03/29 00:08:22;;;;;;;39.00;17.10;;;;;;;11.51;93.15;100329.66;5031087;28;20200;-72
2022/03/29 00:10:50;;;;;;;42.83;16.73;;;;;;;11.47;92.77;100304.50;5031270;28;20208;-72
2022/03/29 00:13:17;;;;;;;50.38;17.75;;;;;;;11.66;92.41;100320.41;5030948;28;20223;-73
2022/03/29 00:22:28;;;;;;;39.67;17.17;;;;;;;11.64;92.60;100313.41;5030969;28;20190;-72
2022/03/29 00:24:55;;;;;;;37.20;17.02;;;;;;;11.60;92.28;100298.63;5030886;28;20207;-72
2022/03/29 00:27:23;;;;;;;41.25;15.98;;;;;;;11.62;90.80;100294.34;5030516;28;20200;-72
2022/03/29 00:29:50;;;;;;;34.20;15.38;;;;;;;11.66;89.27;100299.63;5031084;28;20218;-72
2022/03/29 00:32:17;;;;;;;32.47;14.18;;;;;;;11.72;88.29;100309.25;5011878;28;20200;-72
2022/03/29 00:34:45;;;;;;;24.85;12.32;;;;;;;11.66;84.14;100309.13;5030228;28;20207;-72
2022/03/29 00:37:11;;;;;;;29.90;14.02;;;;;;;11.76;86.56;100303.25;5030435;28;20227;-72
2022/03/29 00:39:38;;;;;;;29.13;14.30;;;;;;;11.69;91.82;100291.00;5029783;28;20231;-72
2022/03/29 00:42:05;;;;;;;39.53;16.52;;;;;;;11.50;94.02;100278.59;5030554;28;20204;-72
2022/03/29 00:44:36;;;;;;;32.65;14.70;;;;;;;11.24;96.51;100263.50;5030767;28;20203;-72
2022/03/29 00:47:03;;;;;;;29.58;14.52;;;;;;;11.18;98.52;100296.28;5030609;28;20653;-72
2022/03/29 00:49:30;;;;;;;31.17;15.45;;;;;;;10.99;100.00;100270.91;5030628;28;20223;-72
2022/03/29 00:52:01;;;;;;;26.20;14.18;;;;;;;10.61;100.00;100236.53;5030657;28;20204;-72
2022/03/29 00:54:29;;;;;;;24.92;14.02;;;;;;;10.71;100.00;100282.50;5030696;28;20196;-72
2022/03/29 00:56:57;;;;;;;32.78;14.68;;;;;;;10.65;100.00;100279.81;5030742;28;20196;-72
2022/03/29 00:59:25;;;;;;;33.22;14.38;;;;;;;10.55;100.00;100275.31;5030076;28;20777;-70
2022/03/29 01:01:53;;;;;;;26.95;13.88;;;;;;;10.41;100.00;100269.88;5030401;28;20236;-72
2022/03/29 01:04:21;;;;;;;29.95;14.32;;;;;;;10.38;100.00;100264.66;5014041;28;20196;-72
2022/03/29 01:06:48;;;;;;;26.85;14.80;;;;;;;10.31;100.00;100247.19;5030334;28;20279;-72
2022/03/29 01:09:15;;;;;;;25.73;14.18;;;;;;;9.90;100.00;100189.41;5029824;28;20281;-72
2022/03/29 01:11:42;;;;;;;29.70;14.57;;;;;;;10.32;100.00;100255.03;5030735;28;20196;-72
2022/03/29 01:14:09;;;;;;;30.85;13.77;;;;;;;10.37;100.00;100247.34;5030442;28;20279;-72
2022/03/29 01:19:23;;;;;;;26.30;14.40;;;;;;;10.45;100.00;100250.94;5001069;28;20702;-72
2022/03/29 01:21:57;;;;;;;25.38;13.45;;;;;;;10.30;100.00;100233.41;5030720;28;20274;-72
2022/03/29 01:24:26;;;;;;;35.35;15.18;;;;;;;10.34;100.00;100248.16;5030107;28;20287;-72
2022/03/29 01:26:53;;;;;;;26.75;13.98;;;;;;;10.19;100.00;100227.13;5030045;28;20296;-72
2022/03/29 01:29:21;;;;;;;21.33;14.05;;;;;;;10.14;100.00;100218.41;5029539;28;20696;-72
2022/03/29 01:31:49;;;;;;;36.92;13.77;;;;;;;10.35;100.00;100243.81;5030034;28;20672;-72
2022/03/29 01:34:16;;;;;;;35.22;14.40;;;;;;;10.35;100.00;100247.28;5030135;28;20560;-72
2022/03/29 01:36:43;;;;;;;26.45;13.40;;;;;;;10.37;100.00;100237.84;5030647;28;20270;-72
2022/03/29 01:39:12;;;;;;;32.03;13.57;;;;;;;10.39;100.00;100241.31;5032690;28;20234;-72
2022/03/29 01:41:39;;;;;;;25.08;12.80;;;;;;;10.36;100.00;100243.00;5034211;28;20207;-72
2022/03/29 01:44:06;;;;;;;31.35;12.90;;;;;;;9.85;100.00;100152.19;5034039;28;20235;-72
2022/03/29 01:46:33;;;;;;;22.40;12.27;;;;;;;10.24;100.00;100228.09;5033930;28;20200;-73
2022/03/29 01:49:01;;;;;;;28.83;12.82;;;;;;;10.21;100.00;100227.16;5033517;28;20223;-72
2022/03/29 01:51:27;;;;;;;33.80;13.55;;;;;;;10.19;100.00;100221.97;5033195;28;20200;-72
2022/03/29 01:53:55;;;;;;;31.08;13.98;;;;;;;10.13;100.00;100201.06;5033177;28;20196;-72
2022/03/29 01:56:27;;;;;;;34.17;12.55;;;;;;;10.30;100.00;100214.38;5029583;28;20204;-72
2022/03/29 01:58:54;;;;;;;31.35;13.52;;;;;;;10.33;100.00;100224.81;5033967;28;20201;-72
2022/03/29 02:01:21;;;;;;;25.73;13.20;;;;;;;10.33;100.00;100210.13;5032368;28;20229;-71
2022/03/29 02:03:47;;;;;;;27.42;14.07;;;;;;;10.22;100.00;100190.91;5033457;28;20208;-72
2022/03/29 02:06:14;;;;;;;33.58;14.07;;;;;;;10.21;100.00;100181.38;5014756;28;20196;-72
2022/03/29 02:08:41;;;;;;;30.98;13.50;;;;;;;10.29;100.00;100197.06;5033606;28;20661;-72
2022/03/29 02:11:08;;;;;;;27.02;14.43;;;;;;;10.31;100.00;100208.34;5032753;28;20208;-72
2022/03/29 02:13:38;;;;;;;31.42;15.00;;;;;;;10.33;100.00;100197.16;5014178;28;20192;-72
2022/03/29 02:16:05;;;;;;;34.95;14.68;;;;;;;10.20;100.00;100177.03;5032879;28;20196;-72
2022/03/29 02:18:32;;;;;;;34.65;14.77;;;;;;;10.36;100.00;100188.56;5033579;28;20231;-72
2022/03/29 02:20:59;;;;;;;25.65;14.52;;;;;;;10.40;100.00;100191.25;5014516;28;20228;-72
2022/03/29 02:23:26;;;;;;;30.50;15.43;;;;;;;10.40;100.00;100185.19;4998665;28;20199;-72
2022/03/29 02:25:53;;;;;;;35.92;14.05;;;;;;;10.38;100.00;100187.72;5033094;28;20201;-72
2022/03/29 02:28:19;;;;;;;24.98;13.43;;;;;;;10.26;100.00;100163.34;5033268;28;20211;-72
2022/03/29 02:30:48;;;;;;;28.95;13.68;;;;;;;10.47;100.00;100186.16;5033093;28;20207;-72
2022/03/29 02:33:15;;;;;;;26.77;14.32;;;;;;;10.47;100.00;100186.16;5030878;28;20204;-72
2022/03/29 02:35:42;;;;;;;35.33;15.35;;;;;;;10.45;100.00;100180.97;5033162;28;20305;-72
2022/03/29 02:38:11;;;;;;;34.97;15.18;;;;;;;10.38;100.00;100161.81;5032058;28;20211;-72
2022/03/29 02:40:38;;;;;;;35.30;15.77;;;;;;;10.44;100.00;100172.31;5032085;28;20657;-72
2022/03/29 02:43:05;;;;;;;27.38;14.65;;;;;;;10.47;100.00;100171.47;5032773;28;20266;-72
2022/03/29 02:45:32;;;;;;;31.25;15.65;;;;;;;10.52;100.00;100169.84;5032936;28;20660;-72
2022/03/29 02:48:00;;;;;;;24.00;13.75;;;;;;;10.58;100.00;100174.25;5032667;28;20199;-72
2022/03/29 02:50:28;;;;;;;28.70;15.38;;;;;;;10.58;100.00;100174.25;4996223;28;20208;-72
2022/03/29 02:52:56;;;;;;;27.98;13.23;;;;;;;10.55;100.00;100166.44;5032013;28;20200;-72
2022/03/29 02:55:25;;;;;;;29.30;12.85;;;;;;;10.54;100.00;100167.25;5031585;28;20196;-72
2022/03/29 02:57:53;;;;;;;24.90;12.55;;;;;;;10.44;100.00;100146.38;5032357;28;20200;-72
2022/03/29 03:00:20;;;;;;;26.50;12.57;;;;;;;10.49;100.00;100158.56;5032066;28;20314;-72
2022/03/29 03:02:48;;;;;;;22.20;12.43;;;;;;;10.51;100.00;100159.44;5032125;28;20224;-72
2022/03/29 03:05:17;;;;;;;22.58;11.93;;;;;;;10.54;100.00;100150.00;5032894;28;20231;-72
2022/03/29 03:07:45;;;;;;;28.48;11.68;;;;;;;10.50;100.00;100155.97;5032329;28;20212;-72
2022/03/29 03:10:13;;;;;;;39.35;12.73;;;;;;;10.55;100.00;100143.09;5032287;28;20262;-72
2022/03/29 03:12:41;;;;;;;23.30;12.15;;;;;;;10.58;100.00;100144.00;5032302;28;20270;-72
2022/03/29 03:15:09;;;;;;;25.92;12.55;;;;;;;10.56;100.00;100124.09;5032504;28;20660;-72
2022/03/29 03:17:36;;;;;;;22.70;12.07;;;;;;;10.63;100.00;100139.75;5032357;28;20205;-72
2022/03/29 03:20:04;;;;;;;21.48;11.55;;;;;;;10.67;99.66;100138.09;5032185;28;20232;-72
2022/03/29 03:22:34;;;;;;;22.15;12.82;;;;;;;10.72;99.10;100141.63;5031979;28;20204;-72
2022/03/29 03:25:00;;;;;;;24.02;12.73;;;;;;;10.59;100.00;100134.53;5032496;28;20591;-72
2022/03/29 03:27:27;;;;;;;25.45;12.32;;;;;;;10.50;100.00;100135.25;5032041;28;20667;-72
2022/03/29 03:29:54;;;;;;;28.08;12.55;;;;;;;10.47;100.00;100140.38;5032028;28;20211;-72
2022/03/29 03:32:21;;;;;;;39.50;14.30;;;;;;;10.48;100.00;100133.47;5032297;28;20208;-72
2022/03/29 03:34:48;;;;;;;28.15;14.23;;;;;;;10.51;100.00;100133.53;5032137;28;20262;-72
2022/03/29 03:37:14;;;;;;;26.77;14.20;;;;;;;10.42;100.00;100132.50;5031752;28;20859;-72
2022/03/29 03:39:42;;;;;;;29.15;14.68;;;;;;;10.25;100.00;100126.19;5031823;28;20195;-72
2022/03/29 03:42:10;;;;;;;35.78;14.68;;;;;;;10.21;100.00;100137.34;5031266;28;20208;-72
2022/03/29 03:44:37;;;;;;;28.65;15.32;;;;;;;10.13;100.00;100135.44;5031230;28;20286;-72
2022/03/29 03:47:05;;;;;;;24.77;14.05;;;;;;;9.95;100.00;100104.91;5031711;28;20292;-72
2022/03/29 03:49:32;;;;;;;36.10;18.02;;;;;;;10.07;100.00;100125.84;5031259;28;20291;-72
2022/03/29 03:51:59;;;;;;;34.83;16.15;;;;;;;10.08;100.00;100119.81;5032006;28;20192;-72
2022/03/29 03:54:26;;;;;;;27.83;14.85;;;;;;;10.13;100.00;100125.94;5031531;28;20193;-73
2022/03/29 03:56:54;;;;;;;33.75;14.20;;;;;;;10.21;100.00;100132.16;5022640;28;20258;-72
2022/03/29 03:59:21;;;;;;;32.17;17.48;;;;;;;9.71;100.00;100044.91;5031254;28;20683;-73
2022/03/29 04:01:48;;;;;;;27.50;14.82;;;;;;;10.11;100.00;100106.03;5030208;28;20232;-72
2022/03/29 04:04:15;;;;;;;26.60;13.95;;;;;;;10.22;100.00;100123.56;5031300;28;20698;-72
2022/03/29 04:06:41;;;;;;;27.23;14.35;;;;;;;10.28;100.00;100121.06;5031309;28;20699;-72
2022/03/29 04:09:08;;;;;;;48.58;19.70;;;;;;;10.30;100.00;100090.88;5031444;28;20199;-72
2022/03/29 04:11:35;;;;;;;49.30;22.20;;;;;;;10.37;99.90;100116.03;5031540;28;20192;-72
2022/03/29 04:14:04;;;;;;;87.93;32.47;;;;;;;10.29;100.00;100101.19;5030981;28;20679;-72
2022/03/29 04:16:31;;;;;;;61.85;19.90;;;;;;;10.20;100.00;100109.69;5030886;28;20342;-72
2022/03/29 04:18:58;;;;;;;45.22;21.10;;;;;;;10.30;100.00;100124.56;5031261;28;20201;-72
2022/03/29 04:21:24;;;;;;;37.53;18.83;;;;;;;10.29;100.00;100129.69;5030876;28;20212;-72
2022/03/29 04:23:51;;;;;;;47.63;15.63;;;;;;;10.14;100.00;100125.13;5031645;28;20204;-72
2022/03/29 04:26:18;;;;;;;57.08;15.48;;;;;;;10.13;100.00;100123.34;5030900;28;20677;-72
2022/03/29 04:28:45;;;;;;;42.85;15.77;;;;;;;9.98;100.00;100112.75;5031222;28;20715;-72
2022/03/29 04:31:13;;;;;;;49.33;15.75;;;;;;;10.04;100.00;100122.31;5014212;28;20208;-72
2022/03/29 04:33:40;;;;;;;36.85;16.02;;;;;;;10.11;100.00;100119.88;5030341;28;20882;-72
2022/03/29 04:36:07;;;;;;;40.50;17.73;;;;;;;10.20;100.00;100125.22;5030219;28;20224;-72
2022/03/29 04:38:34;;;;;;;34.25;15.93;;;;;;;10.22;100.00;100126.13;5031127;28;20196;-72
2022/03/29 04:41:01;;;;;;;35.80;14.63;;;;;;;10.26;100.00;100090.78;5028864;28;20270;-72
2022/03/29 04:43:28;;;;;;;52.53;23.38;;;;;;;10.48;100.00;100115.34;5030659;28;20663;-72
2022/03/29 04:45:54;;;;;;;39.33;17.75;;;;;;;10.61;100.00;100112.94;5030472;28;20254;-72
2022/03/29 04:48:23;;;;;;;67.75;20.70;;;;;;;10.76;100.00;100108.00;5030486;28;20215;-72
2022/03/29 04:50:50;;;;;;;59.72;20.08;;;;;;;10.52;100.00;100065.28;5012088;28;20188;-73
2022/03/29 04:53:17;;;;;;;54.33;18.90;;;;;;;10.86;100.00;100088.25;5030570;28;20602;-73
2022/03/29 04:55:44;;;;;;;54.15;18.85;;;;;;;11.10;100.00;100113.63;5030614;28;20215;-72
2022/03/29 04:58:11;;;;;;;65.43;20.55;;;;;;;11.19;98.73;100109.47;5030725;28;20222;-72
2022/03/29 05:00:38;;;;;;;52.63;20.33;;;;;;;11.31;95.22;100114.78;5029618;28;20696;-73
2022/03/29 05:03:05;;;;;;;53.40;19.15;;;;;;;11.41;94.81;100119.22;5030633;28;20219;-72
2022/03/29 05:05:33;;;;;;;47.67;20.02;;;;;;;11.58;93.60;100121.16;4995598;28;20196;-74
2022/03/29 05:08:00;;;;;;;60.58;20.27;;;;;;;11.62;92.57;100116.03;5030177;28;20208;-75
2022/03/29 05:10:27;;;;;;;66.88;18.65;;;;;;;11.75;91.10;100117.06;5030279;28;20283;-72
2022/03/29 05:12:55;;;;;;;55.70;19.55;;;;;;;11.78;90.08;100112.78;5031655;28;20192;-72
2022/03/29 05:15:22;;;;;;;58.50;22.35;;;;;;;11.94;100.00;100113.81;5015839;28;20294;-73
2022/03/29 05:17:49;;;;;;;48.17;23.77;;;;;;;11.81;93.56;100089.41;5034322;28;20211;-72
2022/03/29 05:20:17;;;;;;;53.67;20.30;;;;;;;12.04;89.58;100105.25;5034223;28;20310;-73
2022/03/29 05:22:46;;;;;;;58.72;19.63;;;;;;;11.90;90.10;100093.84;5034635;28;20200;-75
2022/03/29 05:25:14;;;;;;;82.10;25.67;;;;;;;11.93;90.47;100112.94;5034376;28;20200;-72
2022/03/29 05:27:41;;;;;;;79.18;28.23;;;;;;;12.08;90.37;100109.63;5033990;28;20286;-72
2022/03/29 05:30:09;;;;;;;68.47;26.35;;;;;;;12.29;90.59;100107.19;5034390;28;20208;-73
2022/03/29 05:32:36;;;;;;;87.50;31.67;;;;;;;12.49;88.09;100109.94;5033558;28;20275;-71
2022/03/29 05:35:03;;;;;;;96.22;33.88;;;;;;;12.85;100.00;100102.41;5033691;28;20295;-75
2022/03/29 05:37:30;;;;;;;113.03;37.40;;;;;;;13.16;100.00;100093.03;5033886;28;20618;-73
2022/03/29 05:39:59;;;;;;;103.00;40.72;;;;;;;13.41;85.54;100107.91;5033774;28;20192;-73
2022/03/29 05:42:25;;;;;;;89.35;34.78;;;;;;;13.50;83.65;100101.88;4999118;28;20212;-73
2022/03/29 05:44:52;;;;;;;70.95;28.27;;;;;;;13.47;82.03;100096.66;5014005;28;20703;-73
2022/03/29 05:50:03;;;;;;;51.78;23.50;;;;;;;13.48;83.04;100107.97;5034328;28;20207;-72
2022/03/29 05:52:30;;;;;;;49.35;20.58;;;;;;;13.65;82.66;100106.28;5034150;28;20208;-73
2022/03/29 05:54:57;;;;;;;60.97;23.88;;;;;;;13.69;83.73;100108.03;5027618;28;20243;-69
2022/03/29 05:57:25;;;;;;;115.70;48.97;;;;;;;13.63;90.41;100113.19;5027565;28;20207;-70
2022/03/29 05:59:52;;;;;;;49.30;22.88;;;;;;;13.45;94.54;100087.13;5032283;28;20215;-72
2022/03/29 06:02:19;;;;;;;54.45;22.92;;;;;;;13.55;93.03;100107.13;5031870;28;20279;-72
2022/03/29 06:04:46;;;;;;;107.40;45.28;;;;;;;13.73;90.38;100104.56;5032555;28;20679;-72
2022/03/29 06:07:12;;;;;;;118.75;48.45;;;;;;;13.83;88.45;100101.09;5029405;28;20208;-73
2022/03/29 06:09:39;;;;;;;104.28;43.75;;;;;;;14.02;91.71;100104.63;5031688;28;20208;-72
2022/03/29 06:12:07;;;;;;;114.60;44.35;;;;;;;14.25;90.31;100097.69;5032347;28;20224;-72
2022/03/29 06:14:35;;;;;;;119.72;45.42;;;;;;;14.22;90.65;100095.06;5031941;28;20696;-73
2022/03/29 06:17:04;;;;;;;103.32;44.38;;;;;;;14.17;90.03;100097.66;5013119;28;20212;-73
2022/03/29 06:19:31;;;;;;;68.88;28.60;;;;;;;14.19;92.74;100097.69;5030607;28;20204;-73
2022/03/29 06:21:58;;;;;;;70.53;23.27;;;;;;;14.15;87.19;100077.69;5032495;28;20960;-73
2022/03/29 06:24:26;;;;;;;50.92;20.67;;;;;;;14.36;85.24;100089.03;5030151;28;20266;-73
2022/03/29 06:26:53;;;;;;;49.33;19.58;;;;;;;14.53;82.78;100095.97;5031722;28;20196;-73
2022/03/29 06:29:20;;;;;;;52.45;21.38;;;;;;;14.48;81.21;100071.63;5032291;28;20192;-73
2022/03/29 06:31:48;;;;;;;55.28;19.23;;;;;;;14.73;79.75;100083.78;5032674;28;20200;-73
2022/03/29 06:34:15;;;;;;;65.03;20.52;;;;;;;14.49;86.19;100096.81;5032399;28;20208;-73
2022/03/29 06:36:42;;;;;;;57.85;22.75;;;;;;;14.39;88.12;100094.25;5032303;28;20188;-73
2022/03/29 06:39:11;;;;;;;63.17;25.10;;;;;;;14.29;88.57;100096.81;5032718;28;20266;-73
2022/03/29 06:41:38;;;;;;;75.90;23.05;;;;;;;13.96;92.11;100073.31;5032852;28;20220;-73
2022/03/29 06:44:07;;;;;;;73.68;24.67;;;;;;;14.10;92.35;100095.06;5032239;28;20204;-73
2022/03/29 06:46:34;;;;;;;104.15;34.90;;;;;;;14.44;90.31;100068.16;5031852;28;20242;-72
2022/03/29 06:49:03;;;;;;;124.63;37.83;;;;;;;14.79;87.54;100088.97;5031866;28;20286;-72
2022/03/29 06:51:30;;;;;;;100.63;34.10;;;;;;;14.86;86.24;100088.97;4997060;28;20200;-72
2022/03/29 06:53:57;;;;;;;77.72;32.65;;;;;;;15.10;85.18;100090.63;5032124;28;20205;-72
2022/03/29 06:56:26;;;;;;;60.67;22.83;;;;;;;14.92;87.77;100075.00;5032707;28;20634;-74
2022/03/29 06:58:53;;;;;;;61.85;23.98;;;;;;;14.93;89.26;100086.31;5032592;28;20196;-73
2022/03/29 07:01:21;;;;;;;55.30;20.95;;;;;;;15.00;87.33;100083.69;5032416;28;20222;-73
2022/03/29 07:03:48;;;;;;;59.70;22.60;;;;;;;15.24;90.24;100078.38;5032654;28;20204;-74
2022/03/29 07:06:16;;;;;;;56.00;20.50;;;;;;;15.49;83.28;100075.69;5032179;28;20197;-73
2022/03/29 07:11:16;;;;;;;59.63;21.27;;;;;;;15.52;79.88;100083.53;5031463;28;20215;-73
2022/03/29 07:11:29;;;;;;;49.17;20.00;;;;;;;15.84;76.62;100087.69;5032304;28;20200;-73
2022/03/29 07:13:56;;;;;;;48.90;17.63;;;;;;;15.94;73.65;100080.69;4997458;28;20742;-73
2022/03/29 07:16:23;;;;;;;50.53;16.52;;;;;;;15.92;68.59;100061.50;5032243;28;20203;-73
2022/03/29 07:18:50;;;;;;;41.20;16.38;;;;;;;16.07;68.32;100079.69;5031981;28;20211;-74
2022/03/29 07:21:18;;;;;;;44.33;15.45;;;;;;;16.26;67.31;100076.06;4997214;28;20224;-73
2022/03/29 07:23:45;;;;;;;45.47;18.25;;;;;;;16.31;66.45;100042.88;5031969;28;20200;-74
2022/03/29 07:26:12;;;;;;;44.00;20.10;;;;;;;16.71;65.89;100074.81;5031534;28;20541;-73
2022/03/29 07:28:39;;;;;;;53.92;19.75;;;;;;;16.70;64.26;100069.56;5031831;28;20223;-73
2022/03/29 07:31:06;;;;;;;37.70;16.35;;;;;;;16.77;62.26;100064.25;5031907;28;20623;-73
2022/03/29 07:33:34;;;;;;;36.03;15.48;;;;;;;16.75;60.18;100049.47;5031867;28;20250;-73
2022/03/29 07:36:03;;;;;;;41.85;14.32;;;;;;;17.28;57.93;100072.41;5031994;28;20291;-73
2022/03/29 07:38:31;;;;;;;29.67;14.50;;;;;;;17.70;55.62;100071.88;5031318;28;20200;-73
2022/03/29 07:40:58;;;;;;;35.17;15.00;;;;;;;17.55;55.43;100076.47;5031870;28;20676;-73
2022/03/29 07:43:24;;;;;;;38.17;14.32;;;;;;;17.91;55.23;100070.69;5031878;28;20273;-73
2022/03/29 07:45:51;;;;;;;27.38;15.35;;;;;;;17.55;54.52;100065.97;5031452;28;20196;-73
2022/03/29 07:48:18;;;;;;;38.55;15.70;;;;;;;17.92;55.28;100067.19;5030862;28;20200;-73
2022/03/29 07:50:45;;;;;;;38.33;16.88;;;;;;;18.21;53.01;100054.50;5031148;28;20196;-73
2022/03/29 07:53:12;;;;;;;39.65;16.17;;;;;;;17.90;53.59;100041.88;5030912;28;20207;-73
2022/03/29 07:55:40;;;;;;;54.50;16.50;;;;;;;18.02;54.02;100047.78;5020541;28;20266;-73
2022/03/29 07:58:08;;;;;;;27.45;13.75;;;;;;;18.30;52.99;100063.94;5030764;28;20204;-73
2022/03/29 08:00:35;;;;;;;38.83;14.50;;;;;;;18.50;52.78;100058.38;5031245;28;20204;-73
2022/03/29 08:03:04;;;;;;;28.83;13.93;;;;;;;18.14;52.48;100055.47;5030654;28;20626;-73
2022/03/29 08:05:32;;;;;;;28.77;14.07;;;;;;;18.56;51.54;100056.53;5031484;28;20203;-72
2022/03/29 08:08:00;;;;;;;25.52;12.32;;;;;;;18.49;51.04;100051.38;5031297;28;20204;-72
2022/03/29 08:10:28;;;;;;;32.28;12.82;;;;;;;18.67;50.69;100053.72;5031875;28;20206;-71
2022/03/29 08:12:57;;;;;;;25.23;11.55;;;;;;;18.77;50.01;100052.66;5031867;28;20240;-72
2022/03/29 08:15:24;;;;;;;27.42;11.57;;;;;;;18.85;49.07;100045.50;5031231;28;20653;-72
2022/03/29 08:17:50;;;;;;;23.30;11.95;;;;;;;18.76;49.98;100053.56;5031438;28;20200;-72
2022/03/29 08:20:18;;;;;;;25.65;11.48;;;;;;;18.99;49.28;100051.34;5031001;28;20250;-72
2022/03/29 08:22:46;;;;;;;21.50;11.20;;;;;;;19.04;48.91;100039.00;5031256;28;20374;-72
2022/03/29 08:25:14;;;;;;;22.67;11.07;;;;;;;19.16;48.19;100030.84;5031251;28;20207;-72
2022/03/29 08:27:41;;;;;;;24.42;9.82;;;;;;;18.95;47.79;100022.53;5030552;28;20196;-72
2022/03/29 08:30:11;;;;;;;22.60;10.63;;;;;;;19.07;48.55;100035.44;4995851;28;20254;-72
2022/03/29 08:32:37;;;;;;;16.48;9.85;;;;;;;18.99;47.47;100038.22;5030708;28;20273;-72
2022/03/29 08:35:05;;;;;;;18.02;9.25;;;;;;;19.01;47.64;100019.78;5030419;28;20648;-72
2022/03/29 08:37:32;;;;;;;18.90;9.63;;;;;;;18.67;47.95;100028.31;5030664;28;20204;-72
2022/03/29 08:39:59;;;;;;;21.42;9.65;;;;;;;18.92;47.59;100012.06;5030554;28;20207;-72
2022/03/29 08:42:26;;;;;;;13.85;8.55;;;;;;;19.01;47.62;100027.69;4995723;28;20220;-72
2022/03/29 08:44:53;;;;;;;21.30;9.52;;;;;;;19.30;46.82;100025.28;5030569;28;20840;-72
2022/03/29 08:47:21;;;;;;;14.45;9.23;;;;;;;19.40;46.51;100023.34;5030021;28;20206;-72
2022/03/29 08:49:49;;;;;;;20.30;9.70;;;;;;;19.04;46.57;100004.84;5030904;28;20640;-72
2022/03/29 08:52:17;;;;;;;20.90;9.38;;;;;;;19.17;45.67;100016.81;5030291;28;20258;-72
2022/03/29 08:54:45;;;;;;;17.33;9.07;;;;;;;19.56;45.48;100011.59;5030374;28;20328;-72
2022/03/29 08:57:12;;;;;;;12.57;6.75;;;;;;;19.24;44.72;100015.78;5030212;28;20203;-72
2022/03/29 08:59:41;;;;;;;13.93;7.82;;;;;;;19.18;44.09;100010.66;5030634;28;20719;-72
2022/03/29 09:02:12;;;;;;;13.18;7.72;;;;;;;19.29;44.21;99982.38;5030084;28;20247;-72
2022/03/29 09:04:40;;;;;;;14.27;7.60;;;;;;;19.43;42.85;100002.28;5030428;28;20204;-72
2022/03/29 09:07:07;;;;;;;15.18;6.70;;;;;;;19.39;42.11;100000.56;5029904;28;20710;-72
2022/03/29 09:09:36;;;;;;;15.05;7.05;;;;;;;19.31;42.12;99998.97;5011698;28;20639;-72
2022/03/29 09:12:12;;;;;;;12.13;6.40;;;;;;;19.68;41.34;99995.56;5030078;28;20204;-73
2022/03/29 09:14:54;;;;;;;14.13;7.05;;;;;;;19.80;40.67;99995.25;5030167;28;20239;-72
2022/03/29 09:17:32;;;;;;;10.43;7.20;;;;;;;20.06;40.13;99984.97;5030073;28;20204;-72
2022/03/29 09:20:03;;;;;;;10.82;6.18;;;;;;;19.75;39.00;99976.09;5030282;28;20204;-72
2022/03/29 09:22:39;;;;;;;9.98;6.38;;;;;;;19.79;39.66;99975.13;5030090;28;20727;-72
2022/03/29 09:25:07;;;;;;;10.40;5.93;;;;;;;19.57;39.60;99961.59;5029998;28;20746;-73
2022/03/29 09:27:50;;;;;;;11.45;6.63;;;;;;;19.86;39.40;99962.69;5029837;28;20287;-72
2022/03/29 09:30:17;;;;;;;13.88;6.85;;;;;;;19.93;39.10;99967.75;5030224;28;20208;-72
2022/03/29 09:33:00;;;;;;;9.50;6.13;;;;;;;19.98;38.89;99957.97;5029673;28;20204;-72
2022/03/29 09:35:30;;;;;;;11.77;7.22;;;;;;;19.73;38.95;99914.75;5029854;28;20699;-73
2022/03/29 09:37:57;;;;;;;11.82;7.10;;;;;;;19.83;39.72;99958.38;4995684;28;20211;-73
2022/03/29 09:40:34;;;;;;;15.50;8.13;;;;;;;19.88;39.80;99932.78;5030155;28;20258;-73
2022/03/29 09:43:02;;;;;;;21.83;7.22;;;;;;;20.25;39.12;99951.13;5029889;28;20223;-72
2022/03/29 09:45:47;;;;;;;12.20;6.75;;;;;;;20.31;38.16;99950.13;5029982;28;20271;-72
2022/03/29 09:48:28;;;;;;;13.88;7.85;;;;;;;20.47;38.66;99952.31;5029969;28;20287;-73
2022/03/29 09:50:59;;;;;;;13.52;7.05;;;;;;;20.01;39.97;99926.28;5029756;28;20299;-72
2022/03/29 09:53:40;;;;;;;14.20;8.05;;;;;;;19.88;40.30;99918.75;5029957;28;20231;-74
2022/03/29 09:56:08;;;;;;;13.75;8.02;;;;;;;20.03;40.45;99924.50;5011171;28;20192;-72
2022/03/29 09:58:35;;;;;;;10.75;6.93;;;;;;;19.93;39.77;99923.00;5029681;28;20200;-72
2022/03/29 10:01:03;;;;;;;13.90;7.22;;;;;;;19.45;40.39;99904.03;5032068;28;20741;-72
2022/03/29 10:03:33;;;;;;;9.88;6.38;;;;;;;19.71;39.82;99913.91;5033478;28;20247;-72
2022/03/29 10:06:05;;;;;;;17.15;7.80;;;;;;;20.14;39.40;99917.19;5031202;28;20208;-72
2022/03/29 10:11:19;;;;;;;15.15;7.85;;;;;;;20.19;39.35;99910.00;5033224;28;20250;-72
2022/03/29 10:13:46;;;;;;;15.60;7.32;;;;;;;20.37;39.28;99897.31;5033213;28;20291;-73
2022/03/29 10:16:16;;;;;;;19.75;7.90;;;;;;;20.24;38.82;99899.38;4949973;28;20291;-72
2022/03/29 10:18:45;;;;;;;12.35;7.32;;;;;;;20.59;39.27;99894.00;5033228;28;20672;-72
2022/03/29 10:21:14;;;;;;;14.02;7.40;;;;;;;20.67;38.87;99893.78;5033223;28;20200;-72
2022/03/29 10:23:44;;;;;;;11.35;6.82;;;;;;;20.61;38.22;99891.34;5034347;28;20220;-72
2022/03/29 10:26:16;;;;;;;12.55;7.57;;;;;;;20.65;38.71;99878.00;5014960;28;20196;-72
2022/03/29 10:28:43;;;;;;;20.65;7.70;;;;;;;20.83;39.00;99881.03;5032928;28;20208;-72
2022/03/29 10:31:28;;;;;;;10.18;6.90;;;;;;;20.68;38.27;99877.09;5032957;28;20261;-72
2022/03/29 10:34:17;;;;;;;15.43;7.07;;;;;;;20.98;37.60;99868.25;5032920;28;20294;-72
2022/03/29 10:37:03;;;;;;;21.20;7.00;;;;;;;20.56;38.32;99851.09;5032703;28;20680;-72
2022/03/29 10:39:47;;;;;;;13.10;6.38;;;;;;;20.40;38.30;99870.88;5032781;28;20235;-72
2022/03/29 10:42:28;;;;;;;12.40;7.13;;;;;;;20.34;37.92;99795.53;5032572;28;20776;-72
2022/03/29 10:45:07;;;;;;;15.38;6.88;;;;;;;20.77;38.05;99851.31;5032485;28;20192;-72
2022/03/29 10:47:34;;;;;;;11.88;6.70;;;;;;;20.92;37.97;99844.72;5032856;28;20200;-72
2022/03/29 10:50:03;;;;;;;11.52;6.70;;;;;;;21.18;37.48;99841.31;5032522;28;20192;-72
2022/03/29 10:52:38;;;;;;;12.63;6.82;;;;;;;21.35;37.15;99843.38;5032523;28;20211;-71
2022/03/29 10:55:25;;;;;;;11.20;6.70;;;;;;;21.53;37.56;99819.91;5032237;28;20200;-73
2022/03/29 10:58:12;;;;;;;10.35;6.90;;;;;;;21.18;36.74;99783.28;5032593;28;20239;-72
2022/03/29 11:00:41;;;;;;;10.73;6.63;;;;;;;21.56;36.81;99819.78;5032182;28;20205;-72
2022/03/29 11:03:10;;;;;;;14.88;7.70;;;;;;;21.72;36.33;99818.34;5031990;28;20235;-72
2022/03/29 11:06:11;;;;;;;15.00;7.95;;;;;;;21.65;36.29;99806.25;5032382;28;20200;-71
2022/03/29 11:08:41;;;;;;;15.55;8.48;;;;;;;21.89;36.25;99787.88;5032358;28;20250;-71
2022/03/29 11:11:28;;;;;;;11.75;7.72;;;;;;;22.01;35.76;99803.31;5031646;28;20500;-72
2022/03/29 11:13:55;;;;;;;14.10;7.40;;;;;;;21.84;35.36;99792.44;5032246;28;20210;-72
2022/03/29 11:16:30;;;;;;;13.77;7.55;;;;;;;22.08;35.34;99779.25;5032051;28;20711;-72
2022/03/29 11:18:57;;;;;;;11.30;7.72;;;;;;;21.61;35.22;99756.31;5032151;28;20597;-73
2022/03/29 11:21:33;;;;;;;13.43;8.07;;;;;;;21.90;34.46;99779.03;5031943;28;20207;-73
2022/03/29 11:24:03;;;;;;;15.38;7.30;;;;;;;21.90;34.08;99700.75;5031838;28;20238;-73
2022/03/29 11:26:30;;;;;;;15.48;7.32;;;;;;;22.40;33.82;99764.81;5031917;28;20196;-73
2022/03/29 11:28:58;;;;;;;17.10;7.32;;;;;;;22.26;33.04;99758.38;5031640;28;20231;-72
2022/03/29 11:31:33;;;;;;;13.38;7.05;;;;;;;22.21;32.88;99756.75;5032017;28;20208;-74